Terminal Aerodrome Forecast
Issued by NWS Cleveland, OH

Home | Current Version | Previous Version | Graphics & Text | Print | Product List | Glossary Off
Versions: 1 2 3 4 5 6 7 8 9 10 11 12 13 14 15 16 17 18 19 20 21 22 23

000
FTUS41 KCLE 051700
TAFTOL
TAF
KTOL 051732Z 0518/0618 05004KT P6SM -SHRA SCT010 OVC060
      TEMPO 0518/0521 4SM -SHRA BR OVC010
     FM052100 06007KT 6SM HZ VCTS BKN025CB OVC045
      TEMPO 0521/0524 4SM -SHRA BR OVC025
     FM060000 08005KT 4SM BR VCSH SCT012 OVC035
     FM060600 VRB02KT 2SM BR OVC006
     FM061500 VRB03KT 3SM HZ OVC025=

USA.gov is the U.S. government's official web portal to all federal, state and local government web resources and services.